Date,TemperatureHighF,TemperatureAvgF,TemperatureLowF,DewpointHighF,DewpointAvgF,DewpointLowF,HumidityHigh,HumidityAvg,HumidityLow,PressureMaxIn,PressureMinIn,WindSpeedMaxMPH,WindSpeedAvgMPH,GustSpeedMaxMPH,PrecipitationSumIn
2013-3-1,23.0,19.1,16.0,16.0,12.8,9.0,87,75,61,0.00,40.00,7,5,0,0.00
2013-3-2,23.0,18.4,12.0,15.0,11.4,6.0,85,74,60,0.00,40.00,6,4,0,0.00
2013-3-3,26.0,15.6,0.0,16.0,9.7,-2.0,91,77,59,0.00,40.00,6,2,0,0.02
2013-3-4,32.0,16.2,5.0,16.0,9.3,3.0,92,76,43,0.00,40.00,3,1,0,0.00
2013-3-5,36.0,13.8,-1.0,23.0,8.6,-4.0,90,81,46,0.00,40.00,7,2,0,0.00
2013-3-6,30.0,27.0,21.0,27.0,23.3,15.0,96,86,76,0.00,40.00,4,2,0,0.03
2013-3-7,29.0,23.2,20.0,20.0,16.6,14.0,86,76,59,0.00,40.00,3,1,0,0.01
2013-3-8,32.0,24.9,10.0,23.0,18.9,8.0,89,77,62,0.00,40.00,8,4,0,0.01
2013-3-9,35.0,29.2,25.0,31.0,26.1,23.0,95,88,74,0.00,40.00,8,6,0,0.02
2013-3-10,34.0,32.9,32.0,33.0,30.5,28.0,97,90,85,0.00,40.00,9,5,0,0.02
2013-3-11,32.0,30.2,27.0,31.0,29.1,25.0,97,95,91,0.00,40.00,7,5,0,0.24
2013-3-12,26.0,22.0,17.0,24.0,17.6,13.0,92,83,68,0.00,40.00,4,3,0,0.00
2013-3-13,29.0,21.9,18.0,18.0,14.7,12.0,93,74,54,0.00,40.00,7,6,0,0.00
2013-3-14,37.0,21.3,6.0,18.0,12.0,3.0,89,70,40,0.00,40.00,6,2,0,0.00
2013-3-15,31.0,23.7,16.0,28.0,16.6,8.0,92,74,64,0.00,40.00,7,5,0,0.00
2013-3-16,25.0,18.6,13.0,14.0,11.8,8.0,90,74,58,0.00,40.00,3,1,0,0.06
2013-3-17,25.0,16.2,11.0,13.0,6.1,2.0,87,65,42,0.00,40.00,6,3,0,0.03
2013-3-18,34.0,22.1,11.0,27.0,15.3,6.0,96,76,48,0.00,40.00,11,6,0,0.00
2013-3-19,28.0,24.1,20.0,27.0,19.6,12.0,97,84,65,0.00,40.00,9,5,0,0.10
2013-3-20,22.0,18.6,14.0,17.0,12.8,8.0,92,78,69,0.00,40.00,7,5,0,0.00
2013-3-21,25.0,22.4,19.0,21.0,17.7,14.0,94,82,70,0.00,40.00,6,5,0,0.01
2013-3-22,32.0,24.8,18.0,24.0,20.2,13.0,90,82,72,0.00,40.00,6,3,0,0.00
2013-3-23,34.0,28.3,24.0,27.0,22.6,21.0,89,79,62,0.00,40.00,4,2,0,0.03
2013-3-24,32.0,27.1,22.0,22.0,20.9,19.0,88,77,66,0.00,40.00,7,2,0,0.00
2013-3-25,33.0,28.9,19.0,26.0,23.8,17.0,91,81,72,0.00,40.00,7,4,0,0.02
2013-3-26,40.0,33.6,30.0,30.0,28.0,25.0,93,80,61,0.00,40.00,5,3,0,0.05
2013-3-27,41.0,33.1,26.0,28.0,23.4,20.0,85,68,47,0.00,40.00,6,4,0,0.00
2013-3-28,46.0,33.3,25.0,27.0,19.5,15.0,73,58,35,0.00,40.00,4,1,0,0.00
2013-3-29,51.0,28.5,11.0,21.0,15.8,9.0,91,64,28,0.00,40.00,1,0,0,0.00
2013-3-30,38.0,31.8,26.0,33.0,22.7,-99.9,96,79,57,0.00,40.00,9,4,0,0.07
2013-3-31,42.0,33.8,23.0,33.0,27.3,20.0,97,79,45,0.00,40.00,9,4,0,0.00